sensor_id;sensor_type;location;lat;lon;timestamp;pressure;altitude;pressure_sealevel;temperature;humidity
32747;BME280;19118;50.860;13.662;2023-02-01T00:03:32;96685.13;;;1.80;100.00
32747;BME280;19118;50.860;13.662;2023-02-01T00:08:33;96692.06;;;1.89;100.00
32747;BME280;19118;50.860;13.662;2023-02-01T00:13:35;96701.09;;;1.94;100.00
32747;BME280;19118;50.860;13.662;2023-02-01T00:18:38;96692.13;;;1.97;100.00
32747;BME280;19118;50.860;13.662;2023-02-01T00:23:38;96695.34;;;1.91;100.00
32747;BME280;19118;50.860;13.662;2023-02-01T00:28:41;96704.94;;;1.90;100.00
32747;BME280;19118;50.860;13.662;2023-02-01T00:33:42;96705.47;;;1.94;100.00
32747;BME280;19118;50.860;13.662;2023-02-01T00:38:42;96709.72;;;1.77;100.00
32747;BME280;19118;50.860;13.662;2023-02-01T00:43:43;96696.25;;;1.64;100.00
32747;BME280;19118;50.860;13.662;2023-02-01T00:48:44;96706.88;;;1.88;100.00
32747;BME280;19118;50.860;13.662;2023-02-01T00:53:45;96701.38;;;1.91;100.00
32747;BME280;19118;50.860;13.662;2023-02-01T00:58:45;96700.84;;;1.88;100.00
32747;BME280;19118;50.860;13.662;2023-02-01T01:03:48;96712.19;;;1.96;100.00
32747;BME280;19118;50.860;13.662;2023-02-01T01:08:55;96714.16;;;2.02;100.00
32747;BME280;19118;50.860;13.662;2023-02-01T01:13:57;96712.53;;;2.01;100.00
32747;BME280;19118;50.860;13.662;2023-02-01T01:18:58;96722.69;;;2.04;100.00
32747;BME280;19118;50.860;13.662;2023-02-01T01:23:58;96714.88;;;1.87;100.00
32747;BME280;19118;50.860;13.662;2023-02-01T01:28:59;96723.34;;;1.89;100.00
32747;BME280;19118;50.860;13.662;2023-02-01T01:33:59;96717.16;;;1.90;100.00
32747;BME280;19118;50.860;13.662;2023-02-01T01:39:01;96703.31;;;1.89;100.00
32747;BME280;19118;50.860;13.662;2023-02-01T01:44:06;96709.13;;;1.83;100.00
32747;BME280;19118;50.860;13.662;2023-02-01T01:49:13;96710.16;;;1.55;100.00
32747;BME280;19118;50.860;13.662;2023-02-01T01:59:24;96703.53;;;1.42;100.00
32747;BME280;19118;50.860;13.662;2023-02-01T02:04:25;96703.09;;;1.47;100.00
32747;BME280;19118;50.860;13.662;2023-02-01T02:09:25;96696.25;;;1.46;100.00
32747;BME280;19118;50.860;13.662;2023-02-01T02:14:26;96694.97;;;1.32;100.00
32747;BME280;19118;50.860;13.662;2023-02-01T02:25:10;96703.94;;;1.48;100.00
32747;BME280;19118;50.860;13.662;2023-02-01T02:30:41;96690.44;;;1.52;100.00
32747;BME280;19118;50.860;13.662;2023-02-01T02:36:00;96691.56;;;1.50;100.00
32747;BME280;19118;50.860;13.662;2023-02-01T02:41:14;96683.97;;;1.38;100.00
32747;BME280;19118;50.860;13.662;2023-02-01T02:46:38;96677.03;;;1.29;100.00
32747;BME280;19118;50.860;13.662;2023-02-01T02:52:02;96668.63;;;1.35;100.00
32747;BME280;19118;50.860;13.662;2023-02-01T02:57:28;96658.91;;;1.37;100.00
32747;BME280;19118;50.860;13.662;2023-02-01T03:02:49;96673.00;;;1.35;100.00
32747;BME280;19118;50.860;13.662;2023-02-01T03:08:17;96671.69;;;1.49;100.00
32747;BME280;19118;50.860;13.662;2023-02-01T03:13:43;96676.44;;;1.53;100.00
32747;BME280;19118;50.860;13.662;2023-02-01T03:18:57;96674.66;;;1.54;100.00
32747;BME280;19118;50.860;13.662;2023-02-01T03:24:09;96672.44;;;1.59;100.00
32747;BME280;19118;50.860;13.662;2023-02-01T03:29:16;96679.00;;;1.63;100.00
32747;BME280;19118;50.860;13.662;2023-02-01T03:34:18;96672.13;;;1.62;100.00
32747;BME280;19118;50.860;13.662;2023-02-01T03:44:32;96668.63;;;1.71;100.00
32747;BME280;19118;50.860;13.662;2023-02-01T03:49:43;96677.44;;;1.70;100.00
32747;BME280;19118;50.860;13.662;2023-02-01T03:54:45;96666.47;;;1.66;100.00
32747;BME280;19118;50.860;13.662;2023-02-01T03:59:47;96666.16;;;1.69;100.00
32747;BME280;19118;50.860;13.662;2023-02-01T04:04:47;96664.41;;;1.70;100.00
32747;BME280;19118;50.860;13.662;2023-02-01T04:09:51;96658.22;;;1.71;100.00
32747;BME280;19118;50.860;13.662;2023-02-01T04:14:51;96653.97;;;1.70;100.00
32747;BME280;19118;50.860;13.662;2023-02-01T04:19:51;96658.09;;;1.81;100.00
32747;BME280;19118;50.860;13.662;2023-02-01T04:24:52;96644.72;;;1.75;100.00
32747;BME280;19118;50.860;13.662;2023-02-01T04:29:52;96647.78;;;1.71;100.00
32747;BME280;19118;50.860;13.662;2023-02-01T04:34:52;96634.28;;;1.75;100.00
32747;BME280;19118;50.860;13.662;2023-02-01T04:39:53;96632.34;;;1.78;100.00
32747;BME280;19118;50.860;13.662;2023-02-01T04:44:53;96644.50;;;1.69;100.00
32747;BME280;19118;50.860;13.662;2023-02-01T04:49:53;96631.03;;;1.73;100.00
32747;BME280;19118;50.860;13.662;2023-02-01T04:54:54;96617.09;;;1.65;100.00
32747;BME280;19118;50.860;13.662;2023-02-01T04:59:57;96611.81;;;1.57;100.00
32747;BME280;19118;50.860;13.662;2023-02-01T05:04:57;96595.09;;;1.59;100.00
32747;BME280;19118;50.860;13.662;2023-02-01T05:09:58;96593.06;;;1.53;100.00
32747;BME280;19118;50.860;13.662;2023-02-01T05:14:58;96580.63;;;1.65;100.00
32747;BME280;19118;50.860;13.662;2023-02-01T05:19:58;96567.09;;;1.61;100.00
32747;BME280;19118;50.860;13.662;2023-02-01T05:24:59;96572.75;;;1.57;100.00
32747;BME280;19118;50.860;13.662;2023-02-01T05:29:59;96561.06;;;1.61;100.00
32747;BME280;19118;50.860;13.662;2023-02-01T05:35:00;96554.06;;;1.61;100.00
32747;BME280;19118;50.860;13.662;2023-02-01T05:40:00;96538.44;;;1.61;100.00
32747;BME280;19118;50.860;13.662;2023-02-01T05:45:00;96548.31;;;1.58;100.00
32747;BME280;19118;50.860;13.662;2023-02-01T05:50:01;96552.44;;;1.60;100.00
32747;BME280;19118;50.860;13.662;2023-02-01T05:55:01;96542.50;;;1.64;100.00
32747;BME280;19118;50.860;13.662;2023-02-01T06:00:03;96546.91;;;1.63;100.00
32747;BME280;19118;50.860;13.662;2023-02-01T06:05:12;96544.44;;;1.62;100.00
32747;BME280;19118;50.860;13.662;2023-02-01T06:10:13;96540.56;;;1.66;100.00
32747;BME280;19118;50.860;13.662;2023-02-01T06:15:14;96527.84;;;1.63;100.00
32747;BME280;19118;50.860;13.662;2023-02-01T06:20:18;96530.13;;;1.66;100.00
32747;BME280;19118;50.860;13.662;2023-02-01T06:25:18;96531.47;;;1.70;100.00
32747;BME280;19118;50.860;13.662;2023-02-01T06:30:19;96522.06;;;1.77;100.00
32747;BME280;19118;50.860;13.662;2023-02-01T06:35:20;96519.09;;;1.72;100.00
32747;BME280;19118;50.860;13.662;2023-02-01T06:40:20;96538.00;;;1.74;100.00
32747;BME280;19118;50.860;13.662;2023-02-01T06:45:21;96536.00;;;1.68;100.00
32747;BME280;19118;50.860;13.662;2023-02-01T06:50:21;96542.72;;;1.70;100.00
32747;BME280;19118;50.860;13.662;2023-02-01T06:55:21;96534.38;;;1.67;100.00
32747;BME280;19118;50.860;13.662;2023-02-01T07:00:22;96536.47;;;1.63;100.00
32747;BME280;19118;50.860;13.662;2023-02-01T07:05:23;96533.06;;;1.63;100.00
32747;BME280;19118;50.860;13.662;2023-02-01T07:10:23;96526.72;;;1.65;100.00
32747;BME280;19118;50.860;13.662;2023-02-01T07:15:24;96524.31;;;1.72;100.00
32747;BME280;19118;50.860;13.662;2023-02-01T07:20:24;96525.56;;;1.60;100.00
32747;BME280;19118;50.860;13.662;2023-02-01T07:25:25;96527.13;;;1.53;100.00
32747;BME280;19118;50.860;13.662;2023-02-01T07:30:25;96511.16;;;1.48;100.00
32747;BME280;19118;50.860;13.662;2023-02-01T07:35:27;96512.97;;;1.29;100.00
32747;BME280;19118;50.860;13.662;2023-02-01T07:40:28;96512.66;;;1.32;100.00
32747;BME280;19118;50.860;13.662;2023-02-01T07:45:31;96508.47;;;1.39;100.00
32747;BME280;19118;50.860;13.662;2023-02-01T07:50:32;96503.09;;;1.41;100.00
32747;BME280;19118;50.860;13.662;2023-02-01T07:55:32;96502.63;;;1.45;100.00
32747;BME280;19118;50.860;13.662;2023-02-01T08:00:33;96490.31;;;1.48;100.00
32747;BME280;19118;50.860;13.662;2023-02-01T08:05:55;96498.16;;;1.56;100.00
32747;BME280;19118;50.860;13.662;2023-02-01T08:11:00;96486.41;;;1.52;100.00
32747;BME280;19118;50.860;13.662;2023-02-01T08:16:02;96475.66;;;1.55;100.00
32747;BME280;19118;50.860;13.662;2023-02-01T08:21:07;96478.16;;;1.64;100.00
32747;BME280;19118;50.860;13.662;2023-02-01T08:31:16;96451.41;;;1.88;100.00
32747;BME280;19118;50.860;13.662;2023-02-01T08:36:17;96444.31;;;2.07;100.00
32747;BME280;19118;50.860;13.662;2023-02-01T08:41:21;96438.19;;;2.32;100.00
32747;BME280;19118;50.860;13.662;2023-02-01T08:46:22;96429.69;;;2.22;100.00
32747;BME280;19118;50.860;13.662;2023-02-01T08:51:23;96453.84;;;1.90;100.00
32747;BME280;19118;50.860;13.662;2023-02-01T08:56:24;96470.91;;;1.76;100.00
32747;BME280;19118;50.860;13.662;2023-02-01T09:01:24;96460.81;;;1.81;100.00
32747;BME280;19118;50.860;13.662;2023-02-01T09:06:25;96463.28;;;1.83;100.00
32747;BME280;19118;50.860;13.662;2023-02-01T09:11:25;96455.19;;;1.94;100.00
32747;BME280;19118;50.860;13.662;2023-02-01T09:16:26;96466.88;;;1.82;100.00
32747;BME280;19118;50.860;13.662;2023-02-01T09:21:26;96478.88;;;1.74;100.00
32747;BME280;19118;50.860;13.662;2023-02-01T09:26:27;96471.13;;;1.57;100.00
32747;BME280;19118;50.860;13.662;2023-02-01T09:31:27;96473.13;;;1.63;100.00
32747;BME280;19118;50.860;13.662;2023-02-01T09:36:28;96483.94;;;1.76;100.00
32747;BME280;19118;50.860;13.662;2023-02-01T09:41:48;96479.00;;;1.65;100.00
32747;BME280;19118;50.860;13.662;2023-02-01T09:46:54;96480.31;;;1.17;100.00
32747;BME280;19118;50.860;13.662;2023-02-01T09:51:56;96487.94;;;0.93;100.00
32747;BME280;19118;50.860;13.662;2023-02-01T09:57:17;96499.41;;;0.82;100.00
32747;BME280;19118;50.860;13.662;2023-02-01T10:02:23;96516.63;;;0.65;100.00
32747;BME280;19118;50.860;13.662;2023-02-01T10:08:10;96518.78;;;0.52;100.00
32747;BME280;19118;50.860;13.662;2023-02-01T10:13:52;96521.28;;;0.44;100.00
32747;BME280;19118;50.860;13.662;2023-02-01T10:24:20;96539.94;;;0.39;100.00
32747;BME280;19118;50.860;13.662;2023-02-01T10:29:30;96551.72;;;0.61;100.00
32747;BME280;19118;50.860;13.662;2023-02-01T10:34:34;96562.03;;;0.53;100.00
32747;BME280;19118;50.860;13.662;2023-02-01T10:39:35;96578.91;;;0.49;100.00
32747;BME280;19118;50.860;13.662;2023-02-01T10:44:40;96572.44;;;0.53;100.00
32747;BME280;19118;50.860;13.662;2023-02-01T10:54:52;96575.16;;;0.97;100.00
32747;BME280;19118;50.860;13.662;2023-02-01T10:59:53;96573.69;;;1.12;100.00
32747;BME280;19118;50.860;13.662;2023-02-01T11:05:05;96575.16;;;1.32;100.00
32747;BME280;19118;50.860;13.662;2023-02-01T11:10:39;96568.81;;;1.53;100.00
32747;BME280;19118;50.860;13.662;2023-02-01T11:15:43;96590.72;;;1.68;100.00
32747;BME280;19118;50.860;13.662;2023-02-01T11:20:46;96557.97;;;1.91;100.00
32747;BME280;19118;50.860;13.662;2023-02-01T11:25:58;96548.91;;;2.03;100.00
32747;BME280;19118;50.860;13.662;2023-02-01T11:31:03;96537.97;;;2.00;100.00
32747;BME280;19118;50.860;13.662;2023-02-01T11:36:10;96536.06;;;2.10;100.00
32747;BME280;19118;50.860;13.662;2023-02-01T11:41:24;96530.00;;;2.01;100.00
32747;BME280;19118;50.860;13.662;2023-02-01T11:46:30;96528.09;;;2.12;100.00
32747;BME280;19118;50.860;13.662;2023-02-01T11:52:38;96509.09;;;2.27;100.00
32747;BME280;19118;50.860;13.662;2023-02-01T12:02:55;96495.31;;;2.51;100.00
32747;BME280;19118;50.860;13.662;2023-02-01T12:30:02;96493.44;;;2.36;100.00
32747;BME280;19118;50.860;13.662;2023-02-01T12:35:34;96470.50;;;2.47;100.00
32747;BME280;19118;50.860;13.662;2023-02-01T12:46:21;96474.78;;;2.81;100.00
32747;BME280;19118;50.860;13.662;2023-02-01T12:51:33;96480.31;;;2.53;100.00
32747;BME280;19118;50.860;13.662;2023-02-01T12:56:42;96474.44;;;2.68;100.00
32747;BME280;19118;50.860;13.662;2023-02-01T13:01:52;96475.09;;;2.94;100.00
32747;BME280;19118;50.860;13.662;2023-02-01T13:07:13;96470.56;;;2.96;100.00
32747;BME280;19118;50.860;13.662;2023-02-01T13:12:25;96466.66;;;2.84;100.00
32747;BME280;19118;50.860;13.662;2023-02-01T13:17:31;96462.84;;;2.70;100.00
32747;BME280;19118;50.860;13.662;2023-02-01T13:22:45;96455.84;;;2.62;100.00
32747;BME280;19118;50.860;13.662;2023-02-01T13:27:47;96454.22;;;2.78;100.00
32747;BME280;19118;50.860;13.662;2023-02-01T13:38:24;96454.56;;;2.91;100.00
32747;BME280;19118;50.860;13.662;2023-02-01T13:43:30;96452.28;;;2.88;100.00
32747;BME280;19118;50.860;13.662;2023-02-01T13:48:53;96438.88;;;2.91;100.00
32747;BME280;19118;50.860;13.662;2023-02-01T13:53:54;96428.78;;;2.96;100.00
32747;BME280;19118;50.860;13.662;2023-02-01T13:58:54;96436.28;;;2.99;100.00
32747;BME280;19118;50.860;13.662;2023-02-01T14:04:03;96429.09;;;3.01;100.00
32747;BME280;19118;50.860;13.662;2023-02-01T14:19:23;96431.69;;;3.01;100.00
32747;BME280;19118;50.860;13.662;2023-02-01T14:29:31;96441.81;;;2.88;100.00
32747;BME280;19118;50.860;13.662;2023-02-01T14:34:42;96427.13;;;2.87;100.00
32747;BME280;19118;50.860;13.662;2023-02-01T14:55:41;96418.97;;;2.66;100.00
32747;BME280;19118;50.860;13.662;2023-02-01T15:00:48;96407.69;;;2.49;100.00
32747;BME280;19118;50.860;13.662;2023-02-01T15:05:57;96409.19;;;2.51;100.00
32747;BME280;19118;50.860;13.662;2023-02-01T15:11:00;96391.72;;;2.60;100.00
32747;BME280;19118;50.860;13.662;2023-02-01T15:21:04;96365.47;;;2.61;100.00
32747;BME280;19118;50.860;13.662;2023-02-01T15:26:05;96363.19;;;2.50;100.00
32747;BME280;19118;50.860;13.662;2023-02-01T15:31:05;96372.66;;;2.51;100.00
32747;BME280;19118;50.860;13.662;2023-02-01T15:41:16;96384.34;;;2.23;100.00
32747;BME280;19118;50.860;13.662;2023-02-01T15:46:29;96364.63;;;2.04;100.00
32747;BME280;19118;50.860;13.662;2023-02-01T15:51:31;96340.09;;;1.81;100.00
32747;BME280;19118;50.860;13.662;2023-02-01T15:56:37;96330.94;;;1.68;100.00
32747;BME280;19118;50.860;13.662;2023-02-01T16:01:39;96339.25;;;1.64;100.00
32747;BME280;19118;50.860;13.662;2023-02-01T16:06:55;96347.22;;;1.62;100.00
32747;BME280;19118;50.860;13.662;2023-02-01T16:11:58;96332.50;;;1.37;100.00
32747;BME280;19118;50.860;13.662;2023-02-01T16:16:59;96326.31;;;1.12;100.00
32747;BME280;19118;50.860;13.662;2023-02-01T16:21:59;96321.38;;;1.01;100.00
32747;BME280;19118;50.860;13.662;2023-02-01T16:27:00;96300.56;;;1.01;100.00
32747;BME280;19118;50.860;13.662;2023-02-01T16:32:00;96288.41;;;1.09;100.00
32747;BME280;19118;50.860;13.662;2023-02-01T16:37:01;96275.94;;;1.21;100.00
32747;BME280;19118;50.860;13.662;2023-02-01T16:42:10;96266.19;;;1.31;100.00
32747;BME280;19118;50.860;13.662;2023-02-01T16:47:14;96259.22;;;1.40;100.00
32747;BME280;19118;50.860;13.662;2023-02-01T16:52:18;96256.47;;;1.41;100.00
32747;BME280;19118;50.860;13.662;2023-02-01T16:57:20;96261.53;;;1.51;100.00
32747;BME280;19118;50.860;13.662;2023-02-01T17:02:23;96255.47;;;1.42;100.00
32747;BME280;19118;50.860;13.662;2023-02-01T17:07:23;96259.69;;;1.35;100.00
32747;BME280;19118;50.860;13.662;2023-02-01T17:12:26;96308.09;;;1.12;100.00
32747;BME280;19118;50.860;13.662;2023-02-01T17:17:32;96370.38;;;0.18;100.00
32747;BME280;19118;50.860;13.662;2023-02-01T17:22:33;96419.78;;;-0.27;100.00
32747;BME280;19118;50.860;13.662;2023-02-01T17:27:34;96449.41;;;-0.20;100.00
32747;BME280;19118;50.860;13.662;2023-02-01T17:32:36;96448.81;;;-0.14;100.00
32747;BME280;19118;50.860;13.662;2023-02-01T17:37:36;96423.66;;;-0.14;100.00
32747;BME280;19118;50.860;13.662;2023-02-01T17:42:37;96418.50;;;-0.23;100.00
32747;BME280;19118;50.860;13.662;2023-02-01T17:47:37;96437.66;;;-0.24;100.00
32747;BME280;19118;50.860;13.662;2023-02-01T17:52:38;96445.31;;;-0.23;100.00
32747;BME280;19118;50.860;13.662;2023-02-01T17:57:38;96446.56;;;-0.27;100.00
32747;BME280;19118;50.860;13.662;2023-02-01T18:02:39;96475.78;;;-0.15;100.00
32747;BME280;19118;50.860;13.662;2023-02-01T18:07:39;96488.34;;;-0.11;100.00
32747;BME280;19118;50.860;13.662;2023-02-01T18:12:40;96489.16;;;-0.10;100.00
32747;BME280;19118;50.860;13.662;2023-02-01T18:17:40;96501.09;;;-0.17;100.00
32747;BME280;19118;50.860;13.662;2023-02-01T18:22:41;96504.75;;;-0.10;100.00
32747;BME280;19118;50.860;13.662;2023-02-01T18:27:43;96494.88;;;-0.07;100.00
32747;BME280;19118;50.860;13.662;2023-02-01T18:32:43;96496.22;;;-0.03;100.00
32747;BME280;19118;50.860;13.662;2023-02-01T18:37:44;96490.22;;;-0.03;100.00
32747;BME280;19118;50.860;13.662;2023-02-01T18:42:45;96496.97;;;-0.10;100.00
32747;BME280;19118;50.860;13.662;2023-02-01T18:47:45;96496.66;;;-0.07;100.00
32747;BME280;19118;50.860;13.662;2023-02-01T18:52:46;96504.66;;;-0.18;100.00
32747;BME280;19118;50.860;13.662;2023-02-01T18:57:47;96506.25;;;-0.08;100.00
32747;BME280;19118;50.860;13.662;2023-02-01T19:02:47;96502.84;;;-0.08;100.00
32747;BME280;19118;50.860;13.662;2023-02-01T19:07:48;96509.56;;;-0.15;100.00
32747;BME280;19118;50.860;13.662;2023-02-01T19:12:50;96522.41;;;-0.14;100.00
32747;BME280;19118;50.860;13.662;2023-02-01T19:17:52;96512.13;;;-0.06;100.00
32747;BME280;19118;50.860;13.662;2023-02-01T19:22:56;96513.59;;;-0.03;100.00
32747;BME280;19118;50.860;13.662;2023-02-01T19:27:56;96506.22;;;0.02;100.00
32747;BME280;19118;50.860;13.662;2023-02-01T19:32:56;96520.91;;;0.11;100.00
32747;BME280;19118;50.860;13.662;2023-02-01T19:37:57;96530.09;;;0.15;100.00
32747;BME280;19118;50.860;13.662;2023-02-01T19:42:57;96522.47;;;0.32;100.00
32747;BME280;19118;50.860;13.662;2023-02-01T19:47:57;96512.34;;;0.28;100.00
32747;BME280;19118;50.860;13.662;2023-02-01T19:52:58;96519.19;;;0.29;100.00
32747;BME280;19118;50.860;13.662;2023-02-01T19:57:59;96517.00;;;0.35;100.00
32747;BME280;19118;50.860;13.662;2023-02-01T20:03:01;96519.13;;;0.39;100.00
32747;BME280;19118;50.860;13.662;2023-02-01T20:08:02;96515.31;;;0.34;100.00
32747;BME280;19118;50.860;13.662;2023-02-01T20:13:02;96494.59;;;0.24;100.00
32747;BME280;19118;50.860;13.662;2023-02-01T20:18:03;96510.00;;;0.08;100.00
32747;BME280;19118;50.860;13.662;2023-02-01T20:23:04;96515.66;;;0.21;100.00
32747;BME280;19118;50.860;13.662;2023-02-01T20:28:04;96515.91;;;0.27;100.00
32747;BME280;19118;50.860;13.662;2023-02-01T20:33:04;96521.59;;;0.41;100.00
32747;BME280;19118;50.860;13.662;2023-02-01T20:38:05;96522.34;;;0.51;100.00
32747;BME280;19118;50.860;13.662;2023-02-01T20:43:05;96521.69;;;0.49;100.00
32747;BME280;19118;50.860;13.662;2023-02-01T20:48:06;96523.00;;;0.53;100.00
32747;BME280;19118;50.860;13.662;2023-02-01T20:53:06;96526.44;;;0.53;100.00
32747;BME280;19118;50.860;13.662;2023-02-01T20:58:07;96523.41;;;0.58;100.00
32747;BME280;19118;50.860;13.662;2023-02-01T21:03:07;96528.81;;;0.65;100.00
32747;BME280;19118;50.860;13.662;2023-02-01T21:08:10;96520.19;;;0.64;100.00
32747;BME280;19118;50.860;13.662;2023-02-01T21:13:10;96529.69;;;0.55;100.00
32747;BME280;19118;50.860;13.662;2023-02-01T21:18:11;96533.66;;;0.60;100.00
32747;BME280;19118;50.860;13.662;2023-02-01T21:23:13;96541.97;;;0.63;100.00
32747;BME280;19118;50.860;13.662;2023-02-01T21:28:14;96542.19;;;0.52;100.00
32747;BME280;19118;50.860;13.662;2023-02-01T21:33:14;96542.69;;;0.38;100.00
32747;BME280;19118;50.860;13.662;2023-02-01T21:38:14;96557.84;;;0.42;100.00
32747;BME280;19118;50.860;13.662;2023-02-01T21:43:15;96555.84;;;0.36;100.00
32747;BME280;19118;50.860;13.662;2023-02-01T21:48:15;96558.09;;;0.21;100.00
32747;BME280;19118;50.860;13.662;2023-02-01T21:53:15;96562.50;;;0.11;100.00
32747;BME280;19118;50.860;13.662;2023-02-01T21:58:16;96561.47;;;0.04;100.00
32747;BME280;19118;50.860;13.662;2023-02-01T22:03:16;96562.56;;;0.02;100.00
32747;BME280;19118;50.860;13.662;2023-02-01T22:08:16;96573.47;;;0.15;100.00
32747;BME280;19118;50.860;13.662;2023-02-01T22:13:17;96584.91;;;0.22;100.00
32747;BME280;19118;50.860;13.662;2023-02-01T22:18:17;96575.84;;;0.36;100.00
32747;BME280;19118;50.860;13.662;2023-02-01T22:23:18;96583.44;;;0.47;100.00
32747;BME280;19118;50.860;13.662;2023-02-01T22:28:18;96586.94;;;0.55;100.00
32747;BME280;19118;50.860;13.662;2023-02-01T22:33:21;96585.97;;;0.56;100.00
32747;BME280;19118;50.860;13.662;2023-02-01T22:38:21;96594.88;;;0.54;100.00
32747;BME280;19118;50.860;13.662;2023-02-01T22:43:22;96593.16;;;0.45;100.00
32747;BME280;19118;50.860;13.662;2023-02-01T22:48:22;96585.34;;;0.45;100.00
32747;BME280;19118;50.860;13.662;2023-02-01T22:53:23;96598.75;;;0.50;100.00
32747;BME280;19118;50.860;13.662;2023-02-01T22:58:23;96595.75;;;0.45;100.00
32747;BME280;19118;50.860;13.662;2023-02-01T23:03:23;96590.53;;;0.45;100.00
32747;BME280;19118;50.860;13.662;2023-02-01T23:08:24;96580.34;;;0.34;100.00
32747;BME280;19118;50.860;13.662;2023-02-01T23:13:24;96577.72;;;0.34;100.00
32747;BME280;19118;50.860;13.662;2023-02-01T23:18:26;96582.81;;;0.35;100.00
32747;BME280;19118;50.860;13.662;2023-02-01T23:23:27;96582.44;;;0.20;100.00
32747;BME280;19118;50.860;13.662;2023-02-01T23:28:27;96572.69;;;0.05;100.00
32747;BME280;19118;50.860;13.662;2023-02-01T23:33:28;96583.88;;;0.05;100.00
32747;BME280;19118;50.860;13.662;2023-02-01T23:38:28;96580.81;;;0.19;100.00
32747;BME280;19118;50.860;13.662;2023-02-01T23:43:29;96590.34;;;0.28;100.00
32747;BME280;19118;50.860;13.662;2023-02-01T23:48:49;96581.03;;;0.36;100.00
32747;BME280;19118;50.860;13.662;2023-02-01T23:53:53;96576.78;;;0.35;100.00
32747;BME280;19118;50.860;13.662;2023-02-01T23:58:53;96595.75;;;0.45;100.00
